createdAt,value
2023-04-14T00:01:55.550Z,101074.91
2023-04-14T00:05:19.820Z,101079.31
2023-04-14T00:08:43.150Z,101078.53
2023-04-14T00:12:07.551Z,101080.28
2023-04-14T00:15:32.155Z,101091.69
2023-04-14T00:18:55.018Z,101089.09
2023-04-14T00:22:19.099Z,101086.56
2023-04-14T00:25:44.709Z,101089.28
2023-04-14T00:29:07.464Z,101084.09
2023-04-14T00:32:31.765Z,101085.94
2023-04-14T00:35:54.716Z,101089.41
2023-04-14T00:39:17.678Z,101099.09
2023-04-14T00:42:51.593Z,101095.72
2023-04-14T00:46:18.614Z,101101.06
2023-04-14T00:49:43.662Z,101092.59
2023-04-14T00:53:06.308Z,101096.97
2023-04-14T00:56:29.898Z,101100.59
2023-04-14T00:59:52.846Z,101098.38
2023-04-14T01:03:15.905Z,101100.97
2023-04-14T01:06:40.097Z,101100.25
2023-04-14T01:10:04.082Z,101095.28
2023-04-14T01:13:37.389Z,101096.41
2023-04-14T01:17:07.825Z,101104.41
2023-04-14T01:20:35.586Z,101095.03
2023-04-14T01:24:16.791Z,101109.03
2023-04-14T01:27:45.775Z,101111.75
2023-04-14T01:31:21.598Z,101115.25
2023-04-14T01:34:49.724Z,101114.50
2023-04-14T01:38:22.729Z,101110.31
2023-04-14T01:41:49.775Z,101110.41
2023-04-14T01:45:18.469Z,101113.88
2023-04-14T01:48:43.475Z,101120.91
2023-04-14T01:52:09.818Z,101121.84
2023-04-14T01:55:35.126Z,101125.44
2023-04-14T01:59:00.052Z,101120.34
2023-04-14T02:02:26.496Z,101120.47
2023-04-14T02:05:54.356Z,101126.50
2023-04-14T02:09:18.643Z,101118.88
2023-04-14T02:12:43.962Z,101134.47
2023-04-14T02:16:10.744Z,101128.53
2023-04-14T02:19:35.310Z,101122.47
2023-04-14T02:23:00.002Z,101137.31
2023-04-14T02:26:28.804Z,101133.03
2023-04-14T02:29:57.623Z,101139.19
2023-04-14T02:33:23.932Z,101130.84
2023-04-14T02:36:50.790Z,101139.34
2023-04-14T02:40:19.660Z,101147.31
2023-04-14T02:43:46.438Z,101140.50
2023-04-14T02:47:12.470Z,101143.19
2023-04-14T02:50:36.042Z,101142.41
2023-04-14T02:53:59.829Z,101159.91
2023-04-14T02:57:24.637Z,101158.25
2023-04-14T03:00:48.413Z,101158.47
2023-04-14T03:04:11.447Z,101164.56
2023-04-14T03:07:35.364Z,101162.91
2023-04-14T03:10:59.898Z,101169.91
2023-04-14T03:14:24.883Z,101165.63
2023-04-14T03:17:54.797Z,101179.63
2023-04-14T03:21:19.645Z,101176.19
2023-04-14T03:24:45.813Z,101174.59
2023-04-14T03:28:12.767Z,101187.63
2023-04-14T03:31:39.352Z,101188.53
2023-04-14T03:35:04.025Z,101189.47
2023-04-14T03:38:29.643Z,101187.03
2023-04-14T03:41:55.459Z,101187.84
2023-04-14T03:45:18.524Z,101194.00
2023-04-14T03:48:44.864Z,101192.25
2023-04-14T03:52:10.658Z,101188.81
2023-04-14T03:55:37.846Z,101198.31
2023-04-14T03:59:02.704Z,101188.81
2023-04-14T04:02:27.901Z,101197.47
2023-04-14T04:05:52.976Z,101188.81
2023-04-14T04:09:18.400Z,101207.03
2023-04-14T04:12:43.294Z,101212.97
2023-04-14T04:16:11.613Z,101206.03
2023-04-14T04:19:36.385Z,101204.22
2023-04-14T04:23:03.857Z,101214.59
2023-04-14T04:26:27.330Z,101211.88
2023-04-14T04:29:50.997Z,101221.16
2023-04-14T04:33:17.470Z,101216.69
2023-04-14T04:36:42.139Z,101225.47
2023-04-14T04:40:10.224Z,101223.81
2023-04-14T04:43:33.667Z,101245.53
2023-04-14T04:46:57.680Z,101235.91
2023-04-14T04:50:20.636Z,101259.13
2023-04-14T04:53:43.497Z,101255.34
2023-04-14T04:57:09.122Z,101243.94
2023-04-14T05:00:31.978Z,101239.50
2023-04-14T05:03:55.500Z,101236.91
2023-04-14T05:07:18.305Z,101241.91
2023-04-14T05:10:41.801Z,101254.16
2023-04-14T05:14:06.989Z,101241.22
2023-04-14T05:17:29.901Z,101249.72
2023-04-14T05:20:53.526Z,101249.00
2023-04-14T05:24:16.387Z,101255.91
2023-04-14T05:27:39.139Z,101249.00
2023-04-14T05:31:04.294Z,101246.41
2023-04-14T05:34:27.416Z,101251.47
2023-04-14T05:37:52.122Z,101250.63
2023-04-14T05:41:15.792Z,101249.59
2023-04-14T05:44:38.448Z,101246.66
2023-04-14T05:48:03.873Z,101256.19
2023-04-14T05:51:28.487Z,101259.91
2023-04-14T05:54:51.528Z,101242.59
2023-04-14T05:58:15.502Z,101256.53
2023-04-14T06:01:38.998Z,101258.19
2023-04-14T06:05:05.475Z,101262.28
2023-04-14T06:08:30.693Z,101272.34
2023-04-14T06:11:53.794Z,101276.63
2023-04-14T06:15:17.269Z,101280.13
2023-04-14T06:18:40.639Z,101272.38
2023-04-14T06:22:05.853Z,101267.88
2023-04-14T06:25:29.227Z,101274.09
2023-04-14T06:28:53.932Z,101275.69
2023-04-14T06:32:17.647Z,101269.56
2023-04-14T06:35:40.562Z,101270.94
2023-04-14T06:39:06.754Z,101265.56
2023-04-14T06:42:29.961Z,101260.13
2023-04-14T06:45:53.159Z,101271.22
2023-04-14T06:49:20.559Z,101275.38
2023-04-14T06:52:45.541Z,101276.63
2023-04-14T06:56:14.911Z,101282.25
2023-04-14T06:59:41.886Z,101297.50
2023-04-14T07:03:06.153Z,101309.84
2023-04-14T07:06:29.659Z,101308.28
2023-04-14T07:09:52.588Z,101299.50
2023-04-14T07:13:17.275Z,101303.78
2023-04-14T07:16:41.675Z,101310.38
2023-04-14T07:20:05.865Z,101305.13
2023-04-14T07:23:29.948Z,101309.25
2023-04-14T07:26:52.808Z,101320.00
2023-04-14T07:30:20.996Z,101327.63
2023-04-14T07:33:44.455Z,101316.78
2023-04-14T07:37:07.635Z,101324.28
2023-04-14T07:40:31.402Z,101323.47
2023-04-14T07:43:56.008Z,101320.88
2023-04-14T07:47:21.060Z,101313.78
2023-04-14T07:50:46.033Z,101325.31
2023-04-14T07:54:09.392Z,101326.81
2023-04-14T07:57:32.579Z,101310.28
2023-04-14T08:00:56.246Z,101324.84
2023-04-14T08:04:20.693Z,101306.66
2023-04-14T08:07:43.990Z,101316.16
2023-04-14T08:11:07.299Z,101311.78
2023-04-14T08:14:30.329Z,101327.25
2023-04-14T08:17:54.552Z,101315.13
2023-04-14T08:21:21.777Z,101321.00
2023-04-14T08:24:44.821Z,101313.88
2023-04-14T08:28:08.715Z,101305.44
2023-04-14T08:31:33.552Z,101318.28
2023-04-14T08:35:38.738Z,101322.97
2023-04-14T08:38:42.062Z,101326.97
2023-04-14T08:42:05.757Z,101312.47
2023-04-14T08:45:29.116Z,101318.88
2023-04-14T08:49:01.316Z,101313.47
2023-04-14T08:52:28.142Z,101324.97
2023-04-14T08:55:53.456Z,101334.78
2023-04-14T08:59:18.691Z,101328.31
2023-04-14T09:02:46.743Z,101314.00
2023-04-14T09:06:10.232Z,101311.28
2023-04-14T09:09:34.227Z,101324.16
2023-04-14T09:13:02.803Z,101318.91
2023-04-14T09:16:32.468Z,101307.50
2023-04-14T09:20:35.747Z,101324.41
2023-04-14T09:23:42.724Z,101313.81
2023-04-14T09:27:10.481Z,101314.66
2023-04-14T09:30:40.053Z,101318.97
2023-04-14T09:34:03.758Z,101302.13
2023-04-14T09:37:27.973Z,101300.81
2023-04-14T09:40:54.903Z,101297.22
2023-04-14T09:44:23.201Z,101301.72
2023-04-14T09:48:11.260Z,101298.16
2023-04-14T09:51:35.536Z,101302.25
2023-04-14T09:55:00.246Z,101306.59
2023-04-14T09:58:27.271Z,101309.13
2023-04-14T10:01:50.712Z,101304.78
2023-04-14T10:05:15.627Z,101300.34
2023-04-14T10:08:39.861Z,101306.28
2023-04-14T10:12:12.760Z,101318.56
2023-04-14T10:15:36.562Z,101302.03
2023-04-14T10:19:00.037Z,101320.22
2023-04-14T10:22:28.293Z,101321.09
2023-04-14T10:25:55.088Z,101322.75
2023-04-14T10:29:19.123Z,101318.56
2023-04-14T10:32:44.667Z,101321.34
2023-04-14T10:36:09.968Z,101320.38
2023-04-14T10:39:41.833Z,101313.19
2023-04-14T10:43:13.700Z,101309.63
2023-04-14T10:46:49.265Z,101319.28
2023-04-14T10:50:18.366Z,101319.06
2023-04-14T10:53:46.952Z,101348.59
2023-04-14T10:57:14.835Z,101317.28
2023-04-14T11:00:40.269Z,101322.50
2023-04-14T11:04:18.381Z,101326.91
2023-04-14T11:07:52.693Z,101331.06
2023-04-14T11:11:25.266Z,101320.75
2023-04-14T11:14:50.607Z,101322.88
2023-04-14T11:18:27.575Z,101318.78
2023-04-14T11:22:02.320Z,101312.63
2023-04-14T11:25:32.462Z,101320.59
2023-04-14T11:29:01.125Z,101321.28
2023-04-14T11:32:29.750Z,101317.63
2023-04-14T11:35:57.834Z,101301.81
2023-04-14T11:39:24.119Z,101315.38
2023-04-14T11:42:48.538Z,101313.38
2023-04-14T11:46:11.952Z,101324.16
2023-04-14T11:49:39.680Z,101316.88
2023-04-14T11:53:03.567Z,101314.25
2023-04-14T11:56:27.547Z,101314.94
2023-04-14T11:59:51.166Z,101314.00
2023-04-14T12:03:14.286Z,101326.13
2023-04-14T12:06:40.133Z,101317.91
2023-04-14T12:10:05.054Z,101319.06
2023-04-14T12:13:28.798Z,101312.91
2023-04-14T12:16:52.175Z,101315.22
2023-04-14T12:20:19.217Z,101309.47
2023-04-14T12:23:43.824Z,101306.47
2023-04-14T12:27:07.734Z,101308.13
2023-04-14T12:30:31.387Z,101320.56
2023-04-14T12:33:54.979Z,101305.09
2023-04-14T12:37:19.345Z,101302.59
2023-04-14T12:40:46.311Z,101315.78
2023-04-14T12:44:17.573Z,101313.66
2023-04-14T12:47:40.545Z,101308.84
2023-04-14T12:51:13.509Z,101301.06
2023-04-14T12:54:53.672Z,101304.19
2023-04-14T12:58:18.888Z,101315.56
2023-04-14T13:01:42.360Z,101296.06
2023-04-14T13:05:06.025Z,101293.06
2023-04-14T13:08:29.401Z,101293.28
2023-04-14T13:11:58.108Z,101305.78
2023-04-14T13:16:10.243Z,101312.81
2023-04-14T13:19:10.215Z,101297.53
2023-04-14T13:22:33.630Z,101309.13
2023-04-14T13:25:59.872Z,101314.56
2023-04-14T13:29:22.698Z,101307.69
2023-04-14T13:32:47.650Z,101317.00
2023-04-14T13:36:11.284Z,101317.78
2023-04-14T13:39:34.318Z,101323.94
2023-04-14T13:43:02.521Z,101316.31
2023-04-14T13:46:26.165Z,101319.53
2023-04-14T13:49:51.206Z,101326.59
2023-04-14T13:53:14.274Z,101327.41
2023-04-14T13:56:37.236Z,101335.25
2023-04-14T14:00:00.195Z,101333.41
2023-04-14T14:03:23.477Z,101338.59
2023-04-14T14:06:48.567Z,101325.50
2023-04-14T14:10:19.223Z,101317.69
2023-04-14T14:13:42.274Z,101319.72
2023-04-14T14:17:05.234Z,101328.13
2023-04-14T14:20:28.311Z,101324.94
2023-04-14T14:23:52.782Z,101320.75
2023-04-14T14:27:16.589Z,101325.69
2023-04-14T14:30:40.044Z,101325.69
2023-04-14T14:34:04.056Z,101327.41
2023-04-14T14:37:27.507Z,101335.56
2023-04-14T14:40:52.503Z,101345.38
2023-04-14T14:44:16.623Z,101330.81
2023-04-14T14:47:39.862Z,101337.84
2023-04-14T14:51:02.748Z,101336.06
2023-04-14T14:54:26.136Z,101338.06
2023-04-14T14:57:51.350Z,101334.59
2023-04-14T15:01:15.535Z,101341.53
2023-04-14T15:04:38.333Z,101338.13
2023-04-14T15:08:01.765Z,101346.88
2023-04-14T15:11:24.846Z,101336.06
2023-04-14T15:14:49.674Z,101342.28
2023-04-14T15:18:13.052Z,101338.91
2023-04-14T15:21:36.943Z,101338.31
2023-04-14T15:25:00.440Z,101350.94
2023-04-14T15:28:24.600Z,101350.13
2023-04-14T15:31:55.511Z,101352.91
2023-04-14T15:35:20.065Z,101358.38
2023-04-14T15:38:44.865Z,101350.84
2023-04-14T15:42:07.930Z,101354.38
2023-04-14T15:45:31.102Z,101357.84
2023-04-14T15:48:55.678Z,101355.94
2023-04-14T15:52:18.538Z,101362.59
2023-04-14T15:55:41.901Z,101367.66
2023-04-14T15:59:05.585Z,101372.00
2023-04-14T16:02:30.317Z,101380.50
2023-04-14T16:06:03.588Z,101377.97
2023-04-14T16:09:27.365Z,101370.78
2023-04-14T16:12:52.986Z,101375.91
2023-04-14T16:16:17.201Z,101371.44
2023-04-14T16:19:41.897Z,101370.69
2023-04-14T16:23:07.400Z,101368.06
2023-04-14T16:26:31.597Z,101364.56
2023-04-14T16:29:57.926Z,101370.03
2023-04-14T16:33:20.779Z,101375.34
2023-04-14T16:36:44.160Z,101362.00
2023-04-14T16:40:10.714Z,101381.44
2023-04-14T16:43:34.491Z,101380.97
2023-04-14T16:46:58.022Z,101377.69
2023-04-14T16:50:22.766Z,101385.81
2023-04-14T16:53:49.792Z,101385.22
2023-04-14T16:57:14.302Z,101379.22
2023-04-14T17:00:37.977Z,101381.22
2023-04-14T17:04:01.372Z,101385.13
2023-04-14T17:07:24.706Z,101382.78
2023-04-14T17:10:47.972Z,101381.53
2023-04-14T17:14:12.157Z,101396.59
2023-04-14T17:17:35.654Z,101391.50
2023-04-14T17:20:59.399Z,101394.31
2023-04-14T17:24:23.994Z,101404.03
2023-04-14T17:27:47.468Z,101411.25
2023-04-14T17:31:14.680Z,101399.34
2023-04-14T17:34:37.599Z,101410.06
2023-04-14T17:38:01.270Z,101415.59
2023-04-14T17:41:25.796Z,101412.41
2023-04-14T17:44:49.037Z,101423.94
2023-04-14T17:48:13.838Z,101432.88
2023-04-14T17:51:38.032Z,101432.28
2023-04-14T17:55:02.529Z,101431.66
2023-04-14T17:58:27.177Z,101436.13
2023-04-14T18:01:50.958Z,101439.03
2023-04-14T18:05:15.827Z,101444.47
2023-04-14T18:09:08.252Z,101450.06
2023-04-14T18:12:37.053Z,101444.16
2023-04-14T18:16:01.859Z,101448.66
2023-04-14T18:19:25.875Z,101448.94
2023-04-14T18:22:50.539Z,101456.03
2023-04-14T18:29:40.039Z,101459.84
2023-04-14T18:33:03.234Z,101459.25
2023-04-14T18:36:27.508Z,101459.41
2023-04-14T18:39:52.298Z,101463.84
2023-04-14T18:43:15.672Z,101464.00
2023-04-14T18:46:39.622Z,101469.34
2023-04-14T18:50:02.715Z,101476.44
2023-04-14T18:53:25.777Z,101478.34
2023-04-14T18:56:51.088Z,101485.44
2023-04-14T19:00:16.022Z,101477.78
2023-04-14T19:03:40.134Z,101485.72
2023-04-14T19:07:09.089Z,101478.94
2023-04-14T19:10:32.665Z,101493.69
2023-04-14T19:13:56.892Z,101494.66
2023-04-14T19:17:20.014Z,101489.59
2023-04-14T19:20:43.589Z,101493.97
2023-04-14T19:24:06.244Z,101495.78
2023-04-14T19:27:28.893Z,101490.59
2023-04-14T19:30:55.545Z,101499.22
2023-04-14T19:34:18.104Z,101494.09
2023-04-14T19:37:41.464Z,101505.47
2023-04-14T19:41:05.253Z,101498.50
2023-04-14T19:44:28.106Z,101500.28
2023-04-14T19:47:53.038Z,101496.88
2023-04-14T19:51:15.659Z,101502.16
2023-04-14T19:54:40.056Z,101496.16
2023-04-14T19:58:07.416Z,101492.75
2023-04-14T20:01:32.213Z,101497.16
2023-04-14T20:04:57.229Z,101498.91
2023-04-14T20:08:22.559Z,101491.09
2023-04-14T20:11:46.017Z,101497.22
2023-04-14T20:15:11.236Z,101492.13
2023-04-14T20:18:35.970Z,101488.69
2023-04-14T20:22:02.383Z,101505.22
2023-04-14T20:25:25.224Z,101495.75
2023-04-14T20:28:48.088Z,101500.97
2023-04-14T20:32:11.862Z,101495.03
2023-04-14T20:35:48.807Z,101490.69
2023-04-14T20:39:13.041Z,101501.97
2023-04-14T20:42:36.108Z,101501.22
2023-04-14T20:45:59.702Z,101498.66
2023-04-14T20:49:22.925Z,101509.94
2023-04-14T20:52:46.933Z,101505.63
2023-04-14T20:56:11.757Z,101513.50
2023-04-14T20:59:34.590Z,101509.25
2023-04-14T21:02:58.081Z,101517.97
2023-04-14T21:06:21.334Z,101519.78
2023-04-14T21:09:44.292Z,101524.19
2023-04-14T21:15:40.216Z,101517.28
2023-04-14T21:16:52.798Z,101523.41
2023-04-14T21:20:16.320Z,101524.31
2023-04-14T21:23:39.684Z,101525.25
2023-04-14T21:27:03.049Z,101526.16
2023-04-14T21:30:27.855Z,101526.16
2023-04-14T21:33:51.138Z,101530.50
2023-04-14T21:37:19.202Z,101530.56
2023-04-14T21:40:43.083Z,101521.13
2023-04-14T21:44:06.244Z,101531.50
2023-04-14T21:47:30.791Z,101524.63
2023-04-14T21:50:54.115Z,101528.97
2023-04-14T21:54:17.077Z,101526.44
2023-04-14T21:57:44.553Z,101522.22
2023-04-14T22:01:12.964Z,101523.97
2023-04-14T22:04:37.450Z,101524.84
2023-04-14T22:08:01.820Z,101527.47
2023-04-14T22:11:24.962Z,101526.66
2023-04-14T22:14:51.322Z,101524.94
2023-04-14T22:18:14.891Z,101526.78
2023-04-14T22:21:39.696Z,101532.00
2023-04-14T22:25:02.863Z,101522.59
2023-04-14T22:28:25.924Z,101531.22
2023-04-14T22:31:48.959Z,101539.06
2023-04-14T22:35:12.147Z,101536.47
2023-04-14T22:38:36.959Z,101530.47
2023-04-14T22:41:59.401Z,101538.28
2023-04-14T22:45:22.676Z,101529.72
2023-04-14T22:48:46.551Z,101537.47
2023-04-14T22:52:10.126Z,101534.03
2023-04-14T22:55:38.732Z,101529.75
2023-04-14T22:59:02.092Z,101506.56
2023-04-14T23:02:25.283Z,101536.69
2023-04-14T23:05:48.828Z,101535.06
2023-04-14T23:09:15.574Z,101524.69
2023-04-14T23:12:40.475Z,101539.47
2023-04-14T23:16:03.146Z,101536.03
2023-04-14T23:19:25.881Z,101534.28
2023-04-14T23:22:48.656Z,101524.03
2023-04-14T23:26:12.109Z,101536.09
2023-04-14T23:29:38.676Z,101540.50
2023-04-14T23:33:01.728Z,101531.84
2023-04-14T23:36:24.782Z,101532.75
2023-04-14T23:39:47.947Z,101545.78
2023-04-14T23:43:13.152Z,101540.59
2023-04-14T23:46:37.836Z,101538.03
2023-04-14T23:50:03.973Z,101535.44
2023-04-14T23:53:27.361Z,101540.66
2023-04-14T23:56:50.533Z,101539.00
